This is the latest recevied weather packets stored in our database for station/object AK6OS. If no packets are shown the sender has not sent any weather packets the latest 10 day(s).
| Time | Temp. | Humidity | Pressure | Rain* | Wind** | Luminosity | Snow |
|---|---|---|---|---|---|---|---|
| 1777383317 | 5.56° C | 95% | 1019.8 hPa | 0 mm | - | 17 W/m² | - |
| 1777382717 | 5.56° C | 95% | 1019.6 hPa | 0 mm | - | 9 W/m² | - |
| 1777374917 | 7.22° C | 94% | 1019.3 hPa | 0 mm | - | 0 W/m² | - |
| 1777373116 | 7.22° C | 94% | 1019.4 hPa | 0 mm | - | 0 W/m² | - |
| 1777371337 | 7.78° C | 93% | 1019.7 hPa | 0 mm | - | 0 W/m² | - |
| 1777364716 | 9.44° C | 92% | 1020.4 hPa | 0 mm | - | 0 W/m² | - |
| 1777362916 | 9.44° C | 92% | 1020.5 hPa | 0 mm | - | 0 W/m² | - |
| 1777361716 | 9.44° C | 90% | 1020.4 hPa | 0 mm | - | 0 W/m² | - |
| 1777358718 | 11.11° C | 89% | 1020.2 hPa | 0 mm | - | 0 W/m² | - |
| 1777356318 | 11.67° C | 87% | 1020.1 hPa | 0 mm | - | 0 W/m² | - |
| 1777355718 | 11.67° C | 86% | 1020.1 hPa | 0 mm | - | 0 W/m² | - |
| 1777355118 | 11.67° C | 86% | 1020.3 hPa | 0 mm | - | 0 W/m² | - |
| 1777352716 | 12.22° C | 83% | 1020.2 hPa | 0 mm | - | 0 W/m² | - |
| 1777350917 | 12.78° C | 80% | 1019.9 hPa | 0 mm | - | 0 W/m² | - |
| 1777344318 | 15° C | 69% | 1018.6 hPa | 0 mm | - | 5 W/m² | - |
| 1777341917 | 16.67° C | 63% | 1018.1 hPa | 0 mm | - | 59 W/m² | - |
| 1777337717 | 18.33° C | 60% | 1018.1 hPa | 0 mm | - | 271 W/m² | - |
| 1777323938 | 18.89° C | 58% | 1018.8 hPa | 0 mm | - | 918 W/m² | - |
| 1777322120 | 18.89° C | 51% | 1018.9 hPa | 0 mm | - | 952 W/m² | - |
| 1777318516 | 18.89° C | 53% | 1019 hPa | 0 mm | - | 982 W/m² | - |
| 1777313118 | 17.78° C | 62% | 1018.8 hPa | 0 mm | - | 855 W/m² | - |
| 1777310717 | 16.67° C | 67% | 1018.4 hPa | 0 mm | - | 186 W/m² | - |
| 1777308936 | 17.78° C | 62% | 1018.4 hPa | 0 mm | - | 673 W/m² | - |
| 1777308316 | 17.78° C | 62% | 1018.4 hPa | 0 mm | - | 610 W/m² | - |
| 1777306516 | 16.67° C | 63% | 1018.4 hPa | 0 mm | - | 507 W/m² | - |
* Rain latest hour (hover to see other rain measurements)
** Current wind speed in m/s (hover to see current wind gust speed)